Time;durP1;ratioP1;P1;durP2;ratioP2;P2;SDS_P1;SDS_P2;PMS_P1;PMS_P2;Temp;Humidity;BMP_temperature;BMP_pressure;BME280_temperature;BME280_humidity;BME280_pressure;Samples;Min_cycle;Max_cycle;Signal;HPM_P1;HPM_P2
2023/11/07 00:02:19;;;;;;;24.00;9.33;;;;;;;9.81;57.26;100664.45;123965;1099;104249;-80
2023/11/07 00:04:51;;;;;;;21.13;9.30;;;;;;;9.73;57.71;100671.11;123954;1099;104465;-81
2023/11/07 00:07:23;;;;;;;20.77;8.50;;;;;;;9.68;56.95;100665.69;123819;1099;104811;-80
2023/11/07 00:09:55;;;;;;;19.87;9.07;;;;;;;9.70;57.41;100669.25;123967;1099;104252;-82
2023/11/07 00:12:26;;;;;;;22.37;9.50;;;;;;;9.75;57.75;100662.47;123924;1099;104284;-81
2023/11/07 00:14:57;;;;;;;23.03;8.90;;;;;;;9.80;57.36;100657.41;123833;1099;104258;-82
2023/11/07 00:17:29;;;;;;;21.60;9.00;;;;;;;9.84;57.96;100646.23;124252;1099;104354;-81
2023/11/07 00:20:00;;;;;;;22.15;9.10;;;;;;;9.83;57.61;100654.92;124236;1099;104284;-81
2023/11/07 00:22:31;;;;;;;24.40;10.27;;;;;;;9.81;58.09;100657.48;124138;1099;104248;-80
2023/11/07 00:25:04;;;;;;;25.07;9.77;;;;;;;9.83;57.47;100668.03;123930;1099;104255;-80
2023/11/07 00:27:35;;;;;;;22.20;9.30;;;;;;;9.84;57.62;100680.31;124136;1098;104232;-80
2023/11/07 00:30:08;;;;;;;21.83;9.13;;;;;;;9.84;57.69;100683.81;123872;1099;104469;-81
2023/11/07 00:32:40;;;;;;;24.80;9.80;;;;;;;9.85;57.95;100676.88;123855;1099;104197;-80
2023/11/07 00:35:11;;;;;;;22.20;9.30;;;;;;;9.86;58.32;100683.88;123806;1099;104306;-80
2023/11/07 00:37:43;;;;;;;20.83;9.27;;;;;;;9.88;58.60;100671.75;124023;1099;104278;-80
2023/11/07 00:40:16;;;;;;;19.50;8.80;;;;;;;9.88;58.44;100677.00;124121;1098;104358;-81
2023/11/07 00:42:47;;;;;;;21.50;8.73;;;;;;;9.86;58.41;100687.42;124219;1099;104280;-81
2023/11/07 00:45:19;;;;;;;21.17;8.73;;;;;;;9.83;58.57;100688.99;123765;1099;104303;-81
2023/11/07 00:47:50;;;;;;;21.00;8.83;;;;;;;9.83;58.12;100683.75;123786;1102;104748;-81
2023/11/07 00:50:21;;;;;;;23.20;9.07;;;;;;;9.83;58.25;100688.99;123854;1099;104252;-81
2023/11/07 00:52:53;;;;;;;21.50;9.10;;;;;;;9.80;58.49;100689.78;123856;1099;104259;-81
2023/11/07 00:55:24;;;;;;;22.73;8.97;;;;;;;9.78;58.23;100680.05;123926;1099;117870;-81
2023/11/07 00:57:55;;;;;;;22.17;9.97;;;;;;;9.77;58.84;100688.73;123940;1099;104258;-80
2023/11/07 01:00:28;;;;;;;22.93;9.23;;;;;;;9.76;58.71;100689.59;123896;1099;104322;-79
2023/11/07 01:02:59;;;;;;;22.80;9.23;;;;;;;9.68;59.09;100698.01;124148;1099;104261;-80
2023/11/07 01:05:30;;;;;;;21.87;9.00;;;;;;;9.66;58.56;100696.14;123872;1099;104258;-79
2023/11/07 01:08:02;;;;;;;23.00;8.33;;;;;;;9.67;58.64;100697.95;123762;1100;104332;-79
2023/11/07 01:10:33;;;;;;;24.07;9.27;;;;;;;9.66;59.25;100702.30;123770;1099;104280;-80
2023/11/07 01:13:04;;;;;;;20.35;8.55;;;;;;;9.64;59.34;100708.30;123901;1099;104281;-80
2023/11/07 01:15:36;;;;;;;22.40;9.53;;;;;;;9.59;59.46;100709.83;123848;1099;104294;-80
2023/11/07 01:18:08;;;;;;;22.20;9.30;;;;;;;9.56;58.89;100717.56;124202;1099;104223;-80
2023/11/07 01:20:40;;;;;;;22.90;9.60;;;;;;;9.50;59.52;100723.41;123899;1099;104337;-80
2023/11/07 01:23:11;;;;;;;22.47;9.77;;;;;;;9.44;58.93;100736.24;123777;1102;104421;-80
2023/11/07 01:25:43;;;;;;;20.37;8.63;;;;;;;9.41;59.77;100736.11;123800;1099;104208;-79
2023/11/07 01:28:15;;;;;;;22.63;9.03;;;;;;;9.42;59.77;100732.67;123784;1099;104248;-79
2023/11/07 01:30:46;;;;;;;23.63;9.70;;;;;;;9.43;60.00;100737.09;123907;1099;104371;-80
2023/11/07 01:33:18;;;;;;;22.03;9.83;;;;;;;9.35;60.15;100732.40;123844;1099;104338;-79
2023/11/07 01:35:49;;;;;;;23.57;9.97;;;;;;;9.27;59.99;100733.80;124115;1099;104319;-80
2023/11/07 01:38:20;;;;;;;25.90;10.63;;;;;;;9.19;59.46;100740.38;124148;1099;104248;-81
2023/11/07 01:40:52;;;;;;;23.97;10.93;;;;;;;9.16;59.73;100742.86;123828;1102;104309;-80
2023/11/07 01:43:23;;;;;;;28.83;12.57;;;;;;;9.15;60.47;100743.71;123794;1099;104268;-81
2023/11/07 01:45:59;;;;;;;24.73;11.23;;;;;;;9.15;60.00;100751.56;123831;1099;104328;-80
2023/11/07 01:48:31;;;;;;;25.80;10.87;;;;;;;9.15;59.93;100752.45;123864;1099;104469;-80
2023/11/07 01:51:03;;;;;;;26.17;10.97;;;;;;;9.13;60.76;100753.20;123814;1099;104249;-80
2023/11/07 01:53:35;;;;;;;26.53;12.07;;;;;;;9.12;60.02;100752.31;123757;1100;104315;-80
2023/11/07 01:56:09;;;;;;;25.43;11.77;;;;;;;9.11;60.83;100752.24;123792;1099;104676;-81
2023/11/07 01:58:41;;;;;;;24.80;11.23;;;;;;;9.08;60.15;100752.98;123964;1099;104392;-80
2023/11/07 02:01:12;;;;;;;21.80;9.60;;;;;;;9.06;60.71;100749.41;123947;1099;104448;-82
2023/11/07 02:03:45;;;;;;;21.57;9.80;;;;;;;9.05;60.50;100752.84;123889;1099;104476;-81
2023/11/07 02:06:16;;;;;;;23.20;10.13;;;;;;;9.01;60.72;100756.17;123759;1102;104361;-80
2023/11/07 02:08:48;;;;;;;26.37;11.00;;;;;;;8.98;60.73;100764.77;123802;1099;104255;-81
2023/11/07 02:11:19;;;;;;;24.53;10.80;;;;;;;8.93;60.67;100763.66;123931;1100;104504;-81
2023/11/07 02:13:51;;;;;;;27.70;11.47;;;;;;;8.84;61.34;100768.47;123757;1098;104785;-80
2023/11/07 02:16:23;;;;;;;25.10;11.33;;;;;;;8.75;61.22;100762.80;123761;1102;104380;-80
2023/11/07 02:18:55;;;;;;;25.30;10.80;;;;;;;8.73;61.16;100764.45;124007;1098;104351;-80
2023/11/07 02:21:29;;;;;;;23.30;10.70;;;;;;;8.69;61.25;100773.86;124060;1099;104376;-81
2023/11/07 02:24:00;;;;;;;23.73;10.73;;;;;;;8.60;61.41;100769.11;123856;1099;104341;-81
2023/11/07 02:26:31;;;;;;;23.67;10.30;;;;;;;8.60;61.18;100770.80;123770;1099;104374;-81
2023/11/07 02:29:02;;;;;;;24.20;10.03;;;;;;;8.61;61.83;100767.38;123750;1102;104258;-80
2023/11/07 02:31:34;;;;;;;25.20;10.10;;;;;;;8.59;61.17;100775.15;123832;1099;104248;-81
2023/11/07 02:34:05;;;;;;;24.00;9.93;;;;;;;8.48;61.35;100783.28;123908;1099;104363;-82
2023/11/07 02:36:40;;;;;;;23.93;9.73;;;;;;;8.35;61.95;100784.38;124238;1099;104304;-81
2023/11/07 02:39:13;;;;;;;20.43;8.83;;;;;;;8.22;62.12;100786.38;123828;1102;104364;-82
2023/11/07 02:41:45;;;;;;;20.00;8.97;;;;;;;8.15;61.67;100792.15;123929;1100;104268;-81
2023/11/07 02:44:17;;;;;;;21.67;8.50;;;;;;;8.07;62.52;100790.84;124010;1099;104749;-82
2023/11/07 02:46:51;;;;;;;22.33;9.10;;;;;;;7.97;61.74;100788.61;123868;1099;104389;-81
2023/11/07 02:49:23;;;;;;;20.30;8.73;;;;;;;7.99;62.53;100794.80;123894;1099;104191;-82
2023/11/07 02:51:54;;;;;;;19.80;8.67;;;;;;;7.98;62.27;100803.44;123866;1102;104520;-82
2023/11/07 02:54:26;;;;;;;20.23;9.00;;;;;;;7.95;62.61;100808.51;123837;1099;104249;-81
2023/11/07 02:56:58;;;;;;;18.37;8.63;;;;;;;7.92;62.29;100806.66;124069;1099;104332;-82
2023/11/07 02:59:29;;;;;;;20.80;8.47;;;;;;;7.87;62.59;100803.81;123876;1099;104191;-81
2023/11/07 03:02:00;;;;;;;19.60;8.53;;;;;;;7.85;62.44;100810.68;124284;1099;104322;-83
2023/11/07 03:04:32;;;;;;;19.80;8.80;;;;;;;7.84;62.59;100818.44;124083;1099;104341;-82
2023/11/07 03:07:03;;;;;;;19.63;8.00;;;;;;;7.82;62.66;100809.61;123973;1099;104143;-82
2023/11/07 03:09:35;;;;;;;21.97;9.30;;;;;;;7.79;62.65;100810.36;123989;1099;104370;-83
2023/11/07 03:12:10;;;;;;;17.43;7.87;;;;;;;7.84;62.83;100821.05;123956;1102;104208;-83
2023/11/07 03:14:43;;;;;;;18.17;7.80;;;;;;;7.88;62.98;100826.52;124054;1102;104313;-83
2023/11/07 03:17:14;;;;;;;19.77;8.27;;;;;;;7.90;63.61;100824.88;124031;1099;104454;-83
2023/11/07 03:19:51;;;;;;;20.87;8.67;;;;;;;7.94;63.47;100822.42;124174;1099;104280;-82
2023/11/07 03:22:26;;;;;;;20.05;8.50;;;;;;;7.98;63.07;100822.66;123847;1099;104255;-82
2023/11/07 03:24:57;;;;;;;20.33;8.53;;;;;;;7.97;63.37;100812.12;123926;1099;104357;-82
2023/11/07 03:27:28;;;;;;;19.80;8.77;;;;;;;7.96;63.15;100832.11;123942;1100;104340;-82
2023/11/07 03:30:00;;;;;;;21.97;8.13;;;;;;;7.91;63.55;100826.64;123850;1102;104425;-82
2023/11/07 03:32:31;;;;;;;21.97;9.30;;;;;;;7.91;63.55;100826.64;123888;1099;104251;-82
2023/11/07 03:35:04;;;;;;;20.47;7.83;;;;;;;7.88;63.86;100825.59;123907;1099;104280;-81
2023/11/07 03:37:37;;;;;;;19.67;7.75;;;;;;;7.83;63.96;100827.97;123833;1099;104181;-81
2023/11/07 03:40:10;;;;;;;20.57;8.30;;;;;;;7.75;63.41;100834.52;123824;1099;104229;-82
2023/11/07 03:42:42;;;;;;;20.00;8.30;;;;;;;7.68;63.77;100832.39;124346;1099;104278;-81
2023/11/07 03:45:13;;;;;;;20.15;8.05;;;;;;;7.63;63.74;100839.98;123978;1099;104166;-82
2023/11/07 03:47:44;;;;;;;19.95;8.20;;;;;;;7.54;63.59;100843.03;123969;1099;105683;-81
2023/11/07 03:50:16;;;;;;;19.40;7.70;;;;;;;7.45;63.99;100844.22;123852;1099;104328;-80
2023/11/07 03:52:47;;;;;;;20.43;8.37;;;;;;;7.38;64.03;100841.28;123838;1098;104253;-81
2023/11/07 03:55:18;;;;;;;20.90;8.57;;;;;;;7.33;63.96;100844.48;123899;1099;104249;-81
2023/11/07 03:57:50;;;;;;;18.83;7.87;;;;;;;7.31;64.23;100852.23;124102;1099;104270;-82
2023/11/07 04:00:22;;;;;;;17.53;8.10;;;;;;;7.26;64.31;100853.70;124088;1099;104274;-82
2023/11/07 04:02:54;;;;;;;22.83;8.83;;;;;;;7.19;64.64;100849.83;124274;1099;104197;-83
2023/11/07 04:05:25;;;;;;;21.83;8.33;;;;;;;7.24;64.51;100850.09;124054;1099;104248;-82
2023/11/07 04:07:57;;;;;;;18.17;7.83;;;;;;;7.31;64.76;100851.34;123902;1099;104216;-83
2023/11/07 04:10:29;;;;;;;21.23;8.57;;;;;;;7.33;64.84;100866.25;123864;1099;104354;-83
2023/11/07 04:13:05;;;;;;;21.93;7.97;;;;;;;7.34;64.58;100864.56;123935;1099;104272;-82
2023/11/07 04:15:36;;;;;;;17.63;7.33;;;;;;;7.38;64.43;100859.55;124069;1099;104334;-81
2023/11/07 04:18:09;;;;;;;17.23;7.70;;;;;;;7.42;64.97;100864.95;124054;1099;105606;-82
2023/11/07 04:20:42;;;;;;;16.42;7.60;;;;;;;7.46;65.15;100870.42;124133;1099;104226;-82
2023/11/07 04:23:15;;;;;;;19.07;8.10;;;;;;;7.48;65.17;100871.42;124341;1098;104200;-83
2023/11/07 04:25:47;;;;;;;16.57;7.13;;;;;;;7.50;64.87;100875.00;124673;1099;104673;-85
2023/11/07 04:28:19;;;;;;;18.53;7.60;;;;;;;7.52;65.16;100875.09;124357;1099;104271;-84
2023/11/07 04:30:50;;;;;;;17.90;7.90;;;;;;;7.51;65.20;100870.67;125011;1099;104182;-80
2023/11/07 04:33:23;;;;;;;23.00;7.97;;;;;;;7.50;64.91;100874.12;126104;1099;104120;-80
2023/11/07 04:35:54;;;;;;;17.27;7.23;;;;;;;7.46;65.16;100875.64;125933;1099;102039;-80
2023/11/07 04:38:26;;;;;;;19.57;7.47;;;;;;;7.46;65.31;100875.64;124460;1099;104281;-81
2023/11/07 04:40:57;;;;;;;19.20;8.17;;;;;;;7.45;65.51;100883.39;123876;1099;104233;-82
2023/11/07 04:43:35;;;;;;;17.90;7.30;;;;;;;7.38;65.36;100884.78;124112;1099;104246;-82
2023/11/07 04:46:07;;;;;;;21.83;8.13;;;;;;;7.30;65.15;100886.08;123885;1099;104306;-82
2023/11/07 04:48:39;;;;;;;19.50;7.53;;;;;;;7.20;65.50;100890.80;123970;1099;104245;-82
2023/11/07 04:51:11;;;;;;;17.50;7.80;;;;;;;7.12;65.09;100893.77;123861;1099;104271;-82
2023/11/07 04:53:44;;;;;;;18.70;7.70;;;;;;;7.09;65.42;100894.52;124060;1099;104351;-81
2023/11/07 04:56:16;;;;;;;17.73;8.03;;;;;;;7.08;65.44;100903.16;124055;1099;104194;-81
2023/11/07 04:58:48;;;;;;;19.87;8.00;;;;;;;7.12;65.93;100899.91;124070;1099;104390;-82
2023/11/07 05:01:20;;;;;;;17.37;7.17;;;;;;;7.14;65.76;100906.11;124223;1099;104245;-81
2023/11/07 05:03:52;;;;;;;17.90;8.20;;;;;;;7.20;66.19;100906.45;124447;1099;104253;-81
2023/11/07 05:06:23;;;;;;;20.17;8.00;;;;;;;7.23;66.30;100910.03;124263;1099;104344;-81
2023/11/07 05:08:55;;;;;;;17.73;7.53;;;;;;;7.23;65.95;100915.25;124182;1098;104277;-81
2023/11/07 05:11:27;;;;;;;24.13;8.30;;;;;;;7.19;65.91;100907.25;124044;1099;104660;-81
2023/11/07 05:13:58;;;;;;;17.03;7.50;;;;;;;7.19;66.26;100914.20;123900;1099;104204;-81
2023/11/07 05:16:30;;;;;;;18.87;7.93;;;;;;;7.12;66.04;100919.88;123876;1099;104233;-81
2023/11/07 05:19:01;;;;;;;22.17;8.00;;;;;;;7.05;66.28;100923.86;123991;1099;104248;-81
2023/11/07 05:21:33;;;;;;;18.53;7.90;;;;;;;7.01;66.54;100929.70;124097;1099;104297;-82
2023/11/07 05:24:05;;;;;;;23.37;7.87;;;;;;;6.98;66.64;100932.14;124136;1099;104398;-82
2023/11/07 05:26:36;;;;;;;22.50;7.90;;;;;;;6.97;66.91;100932.97;124199;1099;104238;-80
2023/11/07 05:29:07;;;;;;;20.97;8.60;;;;;;;7.02;66.82;100927.18;124007;1099;104176;-81
2023/11/07 05:31:38;;;;;;;19.70;7.63;;;;;;;7.11;66.66;100933.75;123946;1099;104245;-82
2023/11/07 05:34:10;;;;;;;20.83;8.10;;;;;;;7.15;66.76;100939.23;124049;1099;104447;-81
2023/11/07 05:36:42;;;;;;;18.13;7.33;;;;;;;7.17;66.91;100945.43;123980;1099;104267;-82
2023/11/07 05:39:15;;;;;;;21.70;7.60;;;;;;;7.22;67.00;100948.30;124215;1099;104208;-79
2023/11/07 05:41:47;;;;;;;22.65;8.58;;;;;;;7.32;67.21;100944.48;124607;1099;104245;-79
2023/11/07 05:44:19;;;;;;;19.77;8.03;;;;;;;7.37;66.76;100951.77;124364;1099;104172;-78
2023/11/07 05:46:52;;;;;;;18.97;7.67;;;;;;;7.41;67.50;100946.72;124554;1099;104294;-81
2023/11/07 05:49:24;;;;;;;20.57;7.83;;;;;;;7.44;66.69;100955.61;124101;1102;104357;-82
2023/11/07 05:51:56;;;;;;;19.23;8.17;;;;;;;7.42;67.27;100954.64;124235;1099;104226;-79
2023/11/07 05:54:28;;;;;;;20.10;7.60;;;;;;;7.41;67.35;100960.66;124187;1099;104246;-81
2023/11/07 05:57:01;;;;;;;20.57;7.40;;;;;;;7.43;67.11;100961.64;124114;1102;104226;-81
2023/11/07 05:59:33;;;;;;;17.97;7.70;;;;;;;7.46;67.63;100963.53;124121;1099;101967;-81
2023/11/07 06:02:04;;;;;;;19.17;7.57;;;;;;;7.48;67.45;100968.04;124216;1099;104302;-81
2023/11/07 06:04:39;;;;;;;18.57;8.53;;;;;;;7.51;67.85;100973.43;123914;1099;104326;-78
2023/11/07 06:07:11;;;;;;;16.83;7.27;;;;;;;7.52;68.03;100966.48;124150;1099;104341;-81
2023/11/07 06:09:43;;;;;;;18.30;7.83;;;;;;;7.53;67.61;100970.91;124393;1099;104275;-80
2023/11/07 06:12:15;;;;;;;19.87;7.90;;;;;;;7.54;67.65;100973.60;124375;1098;104414;-79
2023/11/07 06:14:46;;;;;;;21.33;8.30;;;;;;;7.58;67.81;100977.27;124309;1099;104306;-79
2023/11/07 06:17:18;;;;;;;22.90;7.83;;;;;;;7.60;67.70;100979.97;124318;1099;104765;-77
2023/11/07 06:19:49;;;;;;;21.77;9.00;;;;;;;7.64;68.05;100979.34;124295;1099;103469;-78
2023/11/07 06:22:23;;;;;;;19.87;8.10;;;;;;;7.69;68.37;100985.70;124297;1099;104207;-79
2023/11/07 06:24:54;;;;;;;19.37;8.40;;;;;;;7.74;67.96;100987.77;124285;1099;102234;-80
2023/11/07 06:27:26;;;;;;;21.37;8.27;;;;;;;7.84;68.16;100986.55;124618;1099;104316;-83
2023/11/07 06:29:58;;;;;;;23.30;8.50;;;;;;;8.00;68.27;100989.98;124609;1098;104226;-78
2023/11/07 06:32:30;;;;;;;21.53;9.20;;;;;;;8.15;68.51;100992.51;124628;1099;102886;-80
2023/11/07 06:35:01;;;;;;;24.10;9.27;;;;;;;8.28;68.46;100987.13;124531;1099;104175;-82
2023/11/07 06:37:34;;;;;;;23.60;8.90;;;;;;;8.42;68.88;100993.08;124679;1102;104211;-81
2023/11/07 06:40:13;;;;;;;23.10;9.70;;;;;;;8.57;68.56;100996.53;124449;1099;104345;-82
2023/11/07 06:42:51;;;;;;;23.90;9.20;;;;;;;8.70;68.18;100987.58;124604;1099;104396;-79
2023/11/07 06:45:24;;;;;;;21.03;9.43;;;;;;;8.80;68.31;100988.94;125802;1102;101962;-79
2023/11/07 06:47:55;;;;;;;25.20;8.70;;;;;;;8.91;68.40;100986.86;124658;1102;103450;-80
2023/11/07 06:50:30;;;;;;;27.27;9.70;;;;;;;8.97;68.31;100995.91;124542;1099;104256;-79
2023/11/07 06:53:03;;;;;;;25.47;9.10;;;;;;;9.02;68.42;100990.91;124609;1099;102417;-80
2023/11/07 06:55:34;;;;;;;26.50;9.60;;;;;;;9.09;68.60;100992.13;124618;1102;104376;-83
2023/11/07 06:58:08;;;;;;;22.87;9.07;;;;;;;9.16;68.23;100997.75;124629;1099;104230;-80
2023/11/07 07:00:45;;;;;;;24.43;8.83;;;;;;;9.24;68.30;100995.51;124744;1102;104127;-82
2023/11/07 07:03:17;;;;;;;23.40;9.00;;;;;;;9.32;68.30;100998.50;124753;1099;103349;-80
2023/11/07 07:05:50;;;;;;;25.40;9.65;;;;;;;9.39;68.91;101005.81;124642;1099;104184;-78
2023/11/07 07:08:23;;;;;;;25.77;8.97;;;;;;;9.47;68.95;101006.19;124639;1099;104252;-80
2023/11/07 07:11:03;;;;;;;22.83;9.60;;;;;;;9.54;68.88;101013.53;124769;1099;104251;-81
2023/11/07 07:13:37;;;;;;;25.77;9.57;;;;;;;9.61;68.34;101007.73;124932;1099;103150;-79
2023/11/07 07:16:23;;;;;;;32.70;10.07;;;;;;;9.68;68.86;101009.84;125368;1102;104211;-78
2023/11/07 07:19:06;;;;;;;27.40;10.13;;;;;;;9.76;68.30;101018.06;125506;1099;104178;-84
2023/11/07 07:21:52;;;;;;;24.83;9.70;;;;;;;9.86;68.40;101014.14;125448;1102;102021;-79
2023/11/07 07:27:44;;;;;;;30.80;10.37;;;;;;;10.02;68.98;101007.88;125477;1099;104168;-79
2023/11/07 07:33:43;;;;;;;29.97;10.90;;;;;;;10.18;68.22;101015.63;125394;1099;107963;-82
2023/11/07 07:36:43;;;;;;;33.00;11.67;;;;;;;10.29;67.87;101009.98;125388;1102;103483;-80
2023/11/07 07:39:28;;;;;;;33.77;11.20;;;;;;;10.40;68.60;101009.65;124635;1099;104188;-79
2023/11/07 07:42:09;;;;;;;34.47;11.50;;;;;;;10.54;68.58;101004.13;124418;1099;104216;-80
2023/11/07 07:44:45;;;;;;;30.57;11.07;;;;;;;10.68;68.70;101007.36;124508;1102;104372;-79
2023/11/07 07:47:21;;;;;;;38.23;11.37;;;;;;;10.82;68.43;101005.33;124770;1099;103310;-78
2023/11/07 07:49:59;;;;;;;35.90;11.53;;;;;;;10.93;68.92;101004.93;124868;1099;104361;-83
2023/11/07 07:52:43;;;;;;;31.80;11.43;;;;;;;11.08;68.62;100996.81;124813;1099;104273;-82
2023/11/07 07:55:22;;;;;;;36.63;11.20;;;;;;;11.22;68.45;100997.38;124788;1102;102930;-81
2023/11/07 07:58:16;;;;;;;;;;;;;;;;;;;;;
2023/11/07 08:01:03;;;;;;;40.00;11.77;;;;;;;11.56;68.51;100995.20;125534;1099;102578;-79
2023/11/07 08:03:41;;;;;;;30.60;11.87;;;;;;;11.71;68.34;101000.18;125682;1099;102725;-79
2023/11/07 08:06:32;;;;;;;34.47;11.97;;;;;;;11.86;68.32;100996.41;124848;1102;104335;-81
2023/11/07 08:09:13;;;;;;;34.63;12.00;;;;;;;12.06;68.52;100993.68;124620;1102;103181;-80
2023/11/07 08:11:59;;;;;;;33.53;11.87;;;;;;;12.23;68.29;101005.72;124507;1102;104358;-78
2023/11/07 08:14:37;;;;;;;32.57;13.03;;;;;;;12.40;68.39;101002.79;124647;1099;107798;-80
2023/11/07 08:17:10;;;;;;;33.10;11.90;;;;;;;12.56;68.04;101007.78;124669;1102;102230;-80
2023/11/07 08:20:14;;;;;;;33.53;12.73;;;;;;;12.73;68.21;101002.19;124747;1099;103376;-79
2023/11/07 08:23:11;;;;;;;33.67;14.07;;;;;;;12.91;67.92;100994.92;126072;1099;101545;-81
2023/11/07 08:25:46;;;;;;;36.43;13.83;;;;;;;13.07;67.81;101003.35;125499;1099;102667;-79
2023/11/07 08:31:40;;;;;;;34.63;13.80;;;;;;;13.45;67.66;101011.67;125621;1099;102682;-79
2023/11/07 08:34:12;;;;;;;32.93;15.10;;;;;;;13.62;67.90;101002.55;125327;1102;104163;-80
2023/11/07 08:36:44;;;;;;;29.20;13.90;;;;;;;13.79;67.43;100991.61;124621;1102;103659;-81
2023/11/07 08:39:24;;;;;;;39.07;14.33;;;;;;;13.93;67.25;100986.75;124537;1102;102239;-79
2023/11/07 08:41:57;;;;;;;30.07;13.73;;;;;;;14.09;67.64;100990.76;124400;1102;104396;-76
2023/11/07 08:44:29;;;;;;;29.07;14.63;;;;;;;14.24;66.73;100991.17;124376;1102;104162;-79
2023/11/07 08:50:40;;;;;;;27.53;13.13;;;;;;;14.55;66.34;100985.02;124390;1099;104287;-79
2023/11/07 08:53:18;;;;;;;27.63;12.90;;;;;;;14.69;66.88;100988.08;124663;1099;103987;-77
2023/11/07 08:55:51;;;;;;;30.20;13.63;;;;;;;14.82;67.02;100983.08;124681;1099;104089;-81
2023/11/07 08:58:24;;;;;;;32.50;13.75;;;;;;;14.89;66.60;100975.35;124483;1102;102161;-77
2023/11/07 09:00:58;;;;;;;28.63;14.13;;;;;;;15.03;65.79;100988.03;124399;1099;104239;-77
2023/11/07 09:03:28;;;;;;;;;;;;;;;15.14;65.65;100985.66;124396;1099;104364;-78
2023/11/07 09:05:59;;;;;;;29.83;12.90;;;;;;;15.28;65.89;100985.13;124470;1100;104211;-79
2023/11/07 09:08:32;;;;;;;37.45;14.70;;;;;;;15.40;65.60;100983.66;124112;1101;104374;-77
2023/11/07 09:11:09;;;;;;;33.93;15.27;;;;;;;15.49;65.19;100978.59;124477;1101;104190;-79
2023/11/07 09:13:47;;;;;;;32.23;13.70;;;;;;;15.62;64.88;100980.63;124615;1102;104191;-80
2023/11/07 09:16:37;;;;;;;31.67;13.63;;;;;;;15.76;65.39;100975.66;125463;1102;104629;-78
2023/11/07 09:19:30;;;;;;;33.33;13.13;;;;;;;15.90;65.16;100975.98;124836;1102;102901;-78
2023/11/07 09:22:09;;;;;;;16.77;7.37;;;;;;;16.09;64.83;100974.62;124337;1102;103725;-77
2023/11/07 09:24:55;;;;;;;19.00;6.53;;;;;;;16.27;63.65;100966.17;124372;1099;104117;-76
2023/11/07 09:27:31;;;;;;;10.70;3.33;;;;;;;16.45;63.67;100960.31;124566;1102;104265;-79
2023/11/07 09:30:08;;;;;;;8.73;2.73;;;;;;;16.62;63.30;100951.80;124537;1102;104688;-78
2023/11/07 09:32:42;;;;;;;8.10;2.90;;;;;;;16.78;62.44;100945.02;124638;1102;102085;-78
2023/11/07 09:35:15;;;;;;;10.20;3.02;;;;;;;16.91;61.48;100946.14;124518;1101;104178;-78
2023/11/07 09:37:49;;;;;;;8.53;2.80;;;;;;;17.05;61.48;100944.63;124533;1102;104233;-78
2023/11/07 09:40:30;;;;;;;5.37;2.90;;;;;;;17.15;60.71;100933.29;124566;1100;104272;-77
2023/11/07 09:43:32;;;;;;;;;;;;;;;;;;;;;
2023/11/07 09:46:45;;;;;;;2.85;1.50;;;;;;;17.32;59.20;100920.28;125989;1102;104262;-78
2023/11/07 09:49:32;;;;;;;3.23;1.57;;;;;;;17.49;57.91;100922.30;125062;1102;102144;-80
2023/11/07 09:55:59;;;;;;;2.23;1.60;;;;;;;17.71;56.61;100920.83;124803;1102;104211;-77
2023/11/07 09:58:47;;;;;;;2.20;1.53;;;;;;;17.78;56.39;100912.09;124802;1102;102187;-78
2023/11/07 10:01:21;;;;;;;3.83;1.80;;;;;;;17.85;56.26;100905.96;124853;1099;104169;-78
2023/11/07 10:03:58;;;;;;;2.03;1.50;;;;;;;17.91;56.36;100914.03;125409;1099;103142;-78
2023/11/07 10:06:30;;;;;;;4.53;1.70;;;;;;;17.99;55.70;100914.13;125941;1101;102951;-77
2023/11/07 10:09:05;;;;;;;6.73;1.90;;;;;;;18.05;55.49;100902.70;125926;1099;102740;-77
2023/11/07 10:11:49;;;;;;;6.77;1.97;;;;;;;18.11;54.71;100898.34;125759;1101;104301;-77
2023/11/07 10:14:21;;;;;;;;;;;;;;;18.19;54.67;100900.20;124736;1102;102353;-78
2023/11/07 10:17:03;;;;;;;1.93;1.27;;;;;;;18.14;54.33;100886.88;124769;1102;104223;-80
2023/11/07 10:19:47;;;;;;;5.07;1.53;;;;;;;18.21;54.29;100888.70;124993;1102;102749;-79
2023/11/07 10:22:24;;;;;;;2.20;1.43;;;;;;;18.21;52.56;100886.04;124967;1102;103435;-77
2023/11/07 10:25:01;;;;;;;8.33;1.98;;;;;;;18.24;52.22;100882.54;124705;1102;102220;-79
2023/11/07 10:27:35;;;;;;;3.07;1.60;;;;;;;18.24;52.74;100872.80;124801;1099;104169;-77
2023/11/07 10:30:09;;;;;;;1.53;1.37;;;;;;;18.30;52.11;100880.83;124584;1102;104172;-79
2023/11/07 10:32:55;;;;;;;3.37;1.40;;;;;;;18.30;51.13;100872.86;124793;1101;102924;-76
2023/11/07 10:35:32;;;;;;;3.40;1.93;;;;;;;18.35;51.37;100875.56;124542;1102;104300;-78
2023/11/07 10:38:14;;;;;;;5.33;1.37;;;;;;;18.33;51.02;100866.70;124733;1102;102132;-77
2023/11/07 10:40:49;;;;;;;2.73;1.33;;;;;;;18.35;51.06;100874.68;124830;1099;102234;-76
2023/11/07 10:43:36;;;;;;;2.30;1.27;;;;;;;18.36;49.93;100863.19;124745;1102;102096;-77
2023/11/07 10:46:10;;;;;;;2.50;1.20;;;;;;;18.37;49.70;100867.60;124816;1102;103654;-78
2023/11/07 10:48:46;;;;;;;2.50;1.60;;;;;;;18.41;50.04;100866.77;124830;1101;102939;-77
2023/11/07 10:51:28;;;;;;;1.90;1.20;;;;;;;18.41;49.50;100870.30;125000;1102;102651;-76
2023/11/07 10:54:03;;;;;;;2.67;1.00;;;;;;;18.43;48.85;100862.34;124938;1102;104226;-77
2023/11/07 10:56:42;;;;;;;2.07;1.10;;;;;;;18.40;48.63;100860.58;124796;1102;103424;-78
2023/11/07 10:59:25;;;;;;;1.40;1.30;;;;;;;18.39;47.93;100857.91;124791;1099;102068;-77
2023/11/07 11:02:02;;;;;;;2.03;1.30;;;;;;;18.38;48.01;100858.77;124682;1099;104232;-82
2023/11/07 11:04:42;;;;;;;1.47;0.97;;;;;;;18.33;47.61;100856.06;124600;1099;102745;-78
2023/11/07 11:07:14;;;;;;;3.17;1.20;;;;;;;18.29;47.35;100854.25;124872;1099;104622;-78
2023/11/07 11:09:47;;;;;;;2.30;1.40;;;;;;;18.23;47.17;100844.47;124754;1102;104329;-78
2023/11/07 11:12:23;;;;;;;2.00;1.02;;;;;;;18.24;47.23;100838.27;124803;1099;104166;-77
2023/11/07 11:14:55;;;;;;;4.27;1.57;;;;;;;18.25;47.32;100842.71;124368;1099;104198;-78
2023/11/07 11:17:34;;;;;;;3.13;1.30;;;;;;;18.27;46.51;100842.73;124343;1099;104251;-80
2023/11/07 11:20:19;;;;;;;1.55;0.82;;;;;;;18.24;46.35;100838.27;116112;1100;10001179;-79
2023/11/07 11:22:56;;;;;;;3.43;1.27;;;;;;;18.22;45.84;100845.34;124809;1102;104245;-82
2023/11/07 11:25:44;;;;;;;2.30;1.10;;;;;;;18.20;45.90;100841.78;124808;1099;104255;-79
2023/11/07 11:28:15;;;;;;;2.53;1.50;;;;;;;18.18;46.29;100842.64;126218;1100;102761;-82
2023/11/07 11:30:59;;;;;;;1.55;1.10;;;;;;;18.17;46.26;100836.44;125359;1099;104130;-78
2023/11/07 11:33:36;;;;;;;2.57;1.20;;;;;;;18.16;45.74;100839.08;124803;1102;104284;-80
2023/11/07 11:36:36;;;;;;;1.93;1.50;;;;;;;18.18;45.54;100824.05;125481;1102;104219;-78
2023/11/07 11:39:44;;;;;;;2.10;1.20;;;;;;;18.19;45.32;100832.03;124568;1099;104355;-77
2023/11/07 11:42:17;;;;;;;2.03;1.50;;;;;;;18.17;45.16;100833.79;124723;1099;102628;-76
2023/11/07 11:45:26;;;;;;;1.97;1.37;;;;;;;18.17;45.18;100820.52;124405;1099;104223;-76
2023/11/07 11:48:01;;;;;;;2.40;1.00;;;;;;;18.17;44.49;100812.54;124535;1102;104329;-79
2023/11/07 11:50:37;;;;;;;1.10;1.00;;;;;;;18.17;44.42;100812.54;124356;1102;104258;-77
2023/11/07 11:53:09;;;;;;;2.47;1.10;;;;;;;18.20;44.50;100811.66;124164;1102;103543;-80
2023/11/07 11:56:11;;;;;;;3.40;1.20;;;;;;;18.19;43.91;100813.44;125523;1102;101974;-79
2023/11/07 11:59:00;;;;;;;3.20;1.27;;;;;;;18.18;43.94;100816.95;124347;1102;104402;-80
2023/11/07 12:01:47;;;;;;;3.30;0.90;;;;;;;18.18;44.06;100808.98;124859;1102;104200;-80
2023/11/07 12:04:35;;;;;;;2.37;0.93;;;;;;;18.17;44.36;100812.54;125563;1102;104060;-82